Time;durP1;ratioP1;P1;durP2;ratioP2;P2;SDS_P1;SDS_P2;PMS_P1;PMS_P2;Temp;Humidity;BMP_temperature;BMP_pressure;BME280_temperature;BME280_humidity;BME280_pressure;Samples;Min_cycle;Max_cycle;Signal;HPM_P1;HPM_P2
2023/01/26 00:00:45;;;;;;;86.32;28.75;;;-0.50;99.90;;;;;;5074026;28;20035;-36
2023/01/26 00:03:10;;;;;;;82.60;29.05;;;-0.50;99.90;;;;;;5074034;28;20040;-35
2023/01/26 00:05:37;;;;;;;81.20;28.27;;;-0.40;99.90;;;;;;5083539;28;20043;-35
2023/01/26 00:08:03;;;;;;;73.78;27.48;;;-0.50;99.90;;;;;;5073915;28;20516;-36
2023/01/26 00:10:29;;;;;;;74.95;27.95;;;-0.40;99.90;;;;;;5077758;28;20449;-36
2023/01/26 00:12:55;;;;;;;82.60;31.05;;;-0.40;99.90;;;;;;5072342;28;20055;-38
2023/01/26 00:15:21;;;;;;;81.90;31.27;;;-0.50;99.90;;;;;;5074129;28;20048;-35
2023/01/26 00:17:47;;;;;;;83.45;31.90;;;-0.50;99.90;;;;;;5073857;28;20404;-35
2023/01/26 00:20:12;;;;;;;83.43;30.80;;;-0.40;99.90;;;;;;5073670;28;20040;-36
2023/01/26 00:22:38;;;;;;;91.35;33.33;;;-0.40;99.90;;;;;;5067242;28;20055;-36
2023/01/26 00:25:04;;;;;;;86.85;32.70;;;-0.40;99.90;;;;;;5077352;28;20047;-35
2023/01/26 00:27:31;;;;;;;87.53;31.02;;;-0.40;99.90;;;;;;5080998;28;20048;-35
2023/01/26 00:29:57;;;;;;;89.15;29.38;;;-0.40;99.90;;;;;;5078904;28;20399;-36
2023/01/26 00:32:23;;;;;;;95.95;33.67;;;-0.40;99.90;;;;;;5081891;28;20036;-35
2023/01/26 00:34:49;;;;;;;80.78;31.63;;;-0.40;99.90;;;;;;5062336;28;20045;-36
2023/01/26 00:37:15;;;;;;;81.78;30.60;;;-0.40;99.90;;;;;;5079003;28;20083;-36
2023/01/26 00:39:40;;;;;;;80.50;31.27;;;-0.40;99.90;;;;;;5075556;28;20036;-37
2023/01/26 00:42:08;;;;;;;86.50;31.52;;;-0.40;99.90;;;;;;5091725;28;20490;-38
2023/01/26 00:44:36;;;;;;;92.82;31.45;;;-0.40;99.90;;;;;;5062304;28;20097;-36
2023/01/26 00:47:02;;;;;;;89.18;31.75;;;-0.40;99.90;;;;;;5082296;28;20036;-36
2023/01/26 00:49:27;;;;;;;89.43;31.23;;;-0.40;99.90;;;;;;5082072;28;20076;-36
2023/01/26 00:51:54;;;;;;;80.15;30.42;;;-0.40;99.90;;;;;;5061700;28;20043;-36
2023/01/26 00:54:19;;;;;;;85.15;31.70;;;-0.40;99.90;;;;;;5065699;28;20036;-36
2023/01/26 00:56:45;;;;;;;82.53;30.63;;;-0.40;99.90;;;;;;5072770;28;20402;-36
2023/01/26 00:59:11;;;;;;;85.57;31.33;;;-0.40;99.90;;;;;;5066252;28;20032;-36
2023/01/26 01:01:37;;;;;;;91.45;30.60;;;-0.40;99.90;;;;;;5093973;28;20540;-35
2023/01/26 01:04:02;;;;;;;90.68;31.90;;;-0.40;99.90;;;;;;5070778;28;20165;-36
2023/01/26 01:06:28;;;;;;;87.90;31.30;;;-0.40;99.90;;;;;;5066393;28;20036;-36
2023/01/26 01:08:54;;;;;;;88.82;29.73;;;-0.30;99.90;;;;;;5077930;28;20028;-36
2023/01/26 01:11:20;;;;;;;84.32;31.83;;;-0.30;99.90;;;;;;5077638;28;20039;-34
2023/01/26 01:13:46;;;;;;;88.05;29.48;;;-0.30;99.90;;;;;;5069037;28;20028;-36
2023/01/26 01:16:15;;;;;;;86.35;31.05;;;-0.30;99.90;;;;;;5076100;28;20032;-35
2023/01/26 01:18:41;;;;;;;87.15;30.65;;;-0.30;99.90;;;;;;5075340;28;20115;-35
2023/01/26 01:21:13;;;;;;;86.68;32.00;;;-0.30;99.90;;;;;;5085263;28;20099;-35
2023/01/26 01:23:40;;;;;;;90.75;30.23;;;-0.30;99.90;;;;;;5072650;28;20079;-35
2023/01/26 01:26:07;;;;;;;88.53;31.35;;;-0.30;99.90;;;;;;5079195;28;20085;-35
2023/01/26 01:28:34;;;;;;;94.90;33.58;;;-0.30;99.90;;;;;;5065460;28;20094;-35
2023/01/26 01:31:04;;;;;;;86.85;31.33;;;-0.30;99.90;;;;;;5078973;28;20028;-35
2023/01/26 01:33:29;;;;;;;81.57;28.83;;;-0.20;99.90;;;;;;5076741;28;20036;-35
2023/01/26 01:36:03;;;;;;;80.00;30.63;;;-0.20;99.90;;;;;;5074773;28;20037;-35
2023/01/26 01:38:29;;;;;;;89.38;31.02;;;-0.30;99.90;;;;;;5070879;28;20480;-36
2023/01/26 01:40:56;;;;;;;89.63;31.70;;;-0.20;99.90;;;;;;5070765;28;20028;-35
2023/01/26 01:43:23;;;;;;;83.43;29.13;;;-0.30;99.90;;;;;;5072686;28;20450;-36
2023/01/26 01:45:51;;;;;;;83.53;29.50;;;-0.20;99.90;;;;;;5076723;28;20043;-36
2023/01/26 01:48:17;;;;;;;85.75;30.23;;;-0.20;99.90;;;;;;5076966;28;20044;-36
2023/01/26 01:50:43;;;;;;;88.40;28.98;;;-0.20;99.90;;;;;;5080659;28;20122;-36
2023/01/26 01:53:13;;;;;;;86.45;29.45;;;-0.20;99.90;;;;;;5070260;28;20182;-36
2023/01/26 01:55:40;;;;;;;82.32;28.63;;;-0.20;99.90;;;;;;5068575;28;20040;-36
2023/01/26 01:58:07;;;;;;;88.10;28.60;;;-0.20;99.90;;;;;;5076146;28;20032;-36
2023/01/26 02:00:32;;;;;;;75.07;28.08;;;-0.20;99.90;;;;;;5088268;28;20047;-35
2023/01/26 02:03:19;;;;;;;82.03;26.73;;;-0.20;99.90;;;;;;5074183;28;20036;-35
2023/01/26 02:06:10;;;;;;;73.57;26.50;;;-0.20;99.90;;;;;;5057313;28;20044;-38
2023/01/26 02:08:51;;;;;;;77.07;26.67;;;-0.20;99.90;;;;;;5074817;28;20489;-36
2023/01/26 02:11:25;;;;;;;74.82;27.15;;;-0.20;99.90;;;;;;5072839;28;20040;-37
2023/01/26 02:13:53;;;;;;;77.55;27.35;;;-0.20;99.90;;;;;;5082234;28;20558;-35
2023/01/26 02:16:19;;;;;;;76.75;27.52;;;-0.20;99.90;;;;;;5081451;28;20504;-36
2023/01/26 02:18:45;;;;;;;82.80;29.00;;;-0.20;99.90;;;;;;5073654;28;20071;-36
2023/01/26 02:21:15;;;;;;;87.60;29.77;;;-0.20;99.90;;;;;;5078491;28;20093;-36
2023/01/26 02:23:41;;;;;;;75.93;26.92;;;-0.20;99.90;;;;;;5070598;28;20321;-36
2023/01/26 02:26:13;;;;;;;86.13;30.25;;;-0.20;99.90;;;;;;5061349;28;20079;-36
2023/01/26 02:28:40;;;;;;;77.88;27.27;;;-0.20;99.90;;;;;;5075902;28;20156;-36
2023/01/26 02:31:07;;;;;;;76.03;26.50;;;-0.20;99.90;;;;;;5078810;28;20048;-36
2023/01/26 02:33:34;;;;;;;80.68;26.67;;;-0.20;99.90;;;;;;5075368;28;20036;-36
2023/01/26 02:36:03;;;;;;;72.85;25.73;;;-0.10;99.90;;;;;;5079845;28;20097;-36
2023/01/26 02:38:42;;;;;;;72.70;26.58;;;-0.10;99.90;;;;;;5075745;28;20032;-36
2023/01/26 02:42:37;;;;;;;78.55;26.83;;;-0.10;99.90;;;;;;5081755;28;20170;-36
2023/01/26 02:44:02;;;;;;;75.35;26.58;;;-0.10;99.90;;;;;;5088278;28;20079;-36
2023/01/26 02:46:28;;;;;;;72.70;26.08;;;-0.10;99.90;;;;;;5076636;28;20036;-37
2023/01/26 02:51:37;;;;;;;63.17;23.63;;;-0.10;99.90;;;;;;5124366;22;20128;-39
2023/01/26 02:54:03;;;;;;;66.60;24.83;;;-0.10;99.90;;;;;;5096100;28;20065;-36
2023/01/26 02:56:29;;;;;;;63.75;22.77;;;0.00;99.90;;;;;;5096778;28;20039;-41
2023/01/26 02:58:55;;;;;;;67.35;23.42;;;0.00;99.90;;;;;;5092895;28;20484;-37
2023/01/26 03:01:21;;;;;;;60.78;21.63;;;0.00;99.90;;;;;;5094545;28;20114;-38
2023/01/26 03:03:46;;;;;;;57.88;20.85;;;-0.10;99.90;;;;;;5076849;28;20036;-37
2023/01/26 03:06:14;;;;;;;53.78;20.00;;;0.00;99.90;;;;;;5055950;28;20101;-39
2023/01/26 03:08:40;;;;;;;52.28;20.20;;;0.00;99.90;;;;;;5073804;28;20097;-37
2023/01/26 03:11:07;;;;;;;54.42;19.90;;;0.00;99.90;;;;;;5063059;28;20489;-37
2023/01/26 03:13:33;;;;;;;48.90;18.92;;;0.00;99.90;;;;;;5074498;28;20083;-37
2023/01/26 03:16:05;;;;;;;50.20;20.38;;;0.00;99.90;;;;;;5086380;28;20040;-36
2023/01/26 03:29:32;;;;;;;48.60;17.40;;;0.10;99.90;;;;;;5089014;28;20108;-38
2023/01/26 03:31:58;;;;;;;50.17;18.52;;;0.10;99.90;;;;;;5074559;28;20039;-38
2023/01/26 03:34:24;;;;;;;51.25;17.45;;;0.10;99.90;;;;;;5070573;28;20107;-38
2023/01/26 03:36:50;;;;;;;47.30;17.42;;;0.10;99.90;;;;;;5060951;28;20028;-38
2023/01/26 03:58:29;;;;;;;36.25;14.93;;;0.20;99.90;;;;;;5094002;28;20124;-39
2023/01/26 04:00:58;;;;;;;38.13;15.52;;;0.20;99.90;;;;;;5045183;28;20519;-38
2023/01/26 04:08:52;;;;;;;43.10;16.73;;;0.20;99.90;;;;;;5092394;28;20098;-38
2023/01/26 04:11:18;;;;;;;39.88;15.60;;;0.20;99.90;;;;;;5070647;28;20431;-38
2023/01/26 04:21:59;;;;;;;37.45;14.40;;;0.30;99.90;;;;;;5086901;28;19927;-38
2023/01/26 04:24:25;;;;;;;39.38;14.68;;;0.20;99.90;;;;;;5071144;28;20048;-38
2023/01/26 04:26:50;;;;;;;35.25;14.23;;;0.30;99.90;;;;;;5065463;28;20039;-38
2023/01/26 04:29:16;;;;;;;40.25;14.25;;;0.30;99.90;;;;;;5053907;28;20044;-39
2023/01/26 04:31:42;;;;;;;38.10;15.63;;;0.30;99.90;;;;;;5074686;28;20508;-39
2023/01/26 04:34:13;;;;;;;40.22;14.85;;;0.30;99.90;;;;;;5062929;28;20040;-39
2023/01/26 04:36:40;;;;;;;39.63;13.98;;;0.30;99.90;;;;;;5060998;28;20028;-39
2023/01/26 04:39:06;;;;;;;39.00;14.25;;;0.40;99.90;;;;;;5071650;28;20035;-39
2023/01/26 04:41:33;;;;;;;38.25;14.18;;;0.40;99.90;;;;;;5076234;28;20392;-39
2023/01/26 04:43:59;;;;;;;42.30;15.43;;;0.30;99.90;;;;;;5074992;28;20041;-39
2023/01/26 04:46:24;;;;;;;34.88;13.40;;;0.40;99.90;;;;;;5068684;28;20069;-39
2023/01/26 04:48:51;;;;;;;37.60;13.70;;;0.40;99.90;;;;;;5067982;28;20032;-39
2023/01/26 04:51:19;;;;;;;35.85;14.48;;;0.40;99.90;;;;;;5073115;28;20131;-36
2023/01/26 04:53:46;;;;;;;36.17;14.68;;;0.40;99.90;;;;;;5066468;23;20054;-36
2023/01/26 04:56:28;;;;;;;35.70;14.02;;;0.40;99.90;;;;;;5045415;28;20508;-38
2023/01/26 04:58:55;;;;;;;32.65;13.40;;;0.40;99.90;;;;;;5037089;28;20040;-38
2023/01/26 05:01:21;;;;;;;36.67;13.27;;;0.40;99.90;;;;;;5054395;28;20501;-40
2023/01/26 05:03:47;;;;;;;36.72;12.88;;;0.50;99.90;;;;;;5027683;28;20052;-38
2023/01/26 05:06:13;;;;;;;33.90;13.63;;;0.40;99.90;;;;;;5048017;28;20083;-39
2023/01/26 05:08:39;;;;;;;27.80;12.45;;;0.50;99.90;;;;;;5045063;28;20044;-38
2023/01/26 05:11:05;;;;;;;32.90;12.52;;;0.40;99.90;;;;;;5026914;28;20041;-37
2023/01/26 05:16:03;;;;;;;46.75;18.92;;;0.50;99.90;;;;;;5089418;28;20048;-36
2023/01/26 05:18:29;;;;;;;42.33;17.48;;;0.50;99.90;;;;;;5081566;28;20047;-44
2023/01/26 05:20:55;;;;;;;47.60;18.92;;;0.50;99.90;;;;;;5075474;28;20039;-40
2023/01/26 05:23:22;;;;;;;54.83;23.25;;;0.50;99.90;;;;;;5090513;28;20492;-42
2023/01/26 05:25:48;;;;;;;67.38;32.35;;;0.50;99.90;;;;;;5083919;28;20044;-40
2023/01/26 05:28:14;;;;;;;37.75;16.23;;;0.50;99.90;;;;;;5083263;28;20512;-39
2023/01/26 05:30:39;;;;;;;37.33;16.17;;;0.50;99.90;;;;;;5081536;28;20054;-40
2023/01/26 05:33:07;;;;;;;39.50;16.63;;;0.50;99.90;;;;;;5075678;28;20069;-40
2023/01/26 05:35:33;;;;;;;32.85;13.00;;;0.50;99.90;;;;;;5081816;28;20036;-40
2023/01/26 05:37:59;;;;;;;33.88;13.38;;;0.50;99.90;;;;;;5085048;28;20450;-41
2023/01/26 05:40:25;;;;;;;27.70;12.30;;;0.50;99.90;;;;;;5083791;28;20155;-40
2023/01/26 05:42:52;;;;;;;31.92;12.50;;;0.50;99.90;;;;;;5084379;28;20031;-41
2023/01/26 05:45:18;;;;;;;29.00;12.15;;;0.50;99.90;;;;;;5081677;28;20028;-39
2023/01/26 05:47:44;;;;;;;27.00;11.68;;;0.50;99.90;;;;;;5076284;28;20035;-41
2023/01/26 05:50:11;;;;;;;30.15;11.80;;;0.50;99.90;;;;;;5096032;28;20400;-41
2023/01/26 05:52:37;;;;;;;29.40;11.55;;;0.50;99.90;;;;;;5095291;28;20119;-41
2023/01/26 05:55:04;;;;;;;26.90;10.98;;;0.50;99.90;;;;;;5089203;28;20039;-40
2023/01/26 05:57:30;;;;;;;30.50;12.13;;;0.60;99.90;;;;;;5097306;28;20039;-42
2023/01/26 05:59:56;;;;;;;27.00;11.50;;;0.60;99.90;;;;;;5100926;28;20044;-40
2023/01/26 06:02:22;;;;;;;31.77;11.68;;;0.60;99.90;;;;;;5092836;28;20039;-39
2023/01/26 06:04:48;;;;;;;30.73;11.48;;;0.60;99.90;;;;;;5085461;28;20119;-40
2023/01/26 06:07:14;;;;;;;28.42;11.05;;;0.60;99.90;;;;;;5081792;28;20040;-40
2023/01/26 06:09:40;;;;;;;27.70;10.77;;;0.60;99.90;;;;;;5070635;28;20039;-41
2023/01/26 06:12:16;;;;;;;28.42;11.27;;;0.60;99.90;;;;;;5079453;28;20043;-40
2023/01/26 06:14:42;;;;;;;26.83;10.98;;;0.60;99.90;;;;;;5076606;28;20041;-42
2023/01/26 06:17:08;;;;;;;21.98;10.40;;;0.60;99.90;;;;;;5090726;28;20062;-40
2023/01/26 06:19:35;;;;;;;26.45;11.85;;;0.60;99.90;;;;;;5076941;28;20036;-40
2023/01/26 06:22:01;;;;;;;23.75;10.80;;;0.60;99.90;;;;;;5060304;28;20412;-41
2023/01/26 06:24:27;;;;;;;29.35;11.45;;;0.60;99.90;;;;;;5069511;28;20032;-37
2023/01/26 06:26:52;;;;;;;28.08;11.45;;;0.60;99.90;;;;;;5074239;28;20051;-39
2023/01/26 06:29:18;;;;;;;31.35;12.65;;;0.60;99.90;;;;;;5070519;28;20039;-38
2023/01/26 06:31:44;;;;;;;26.95;11.35;;;0.60;99.90;;;;;;5070136;28;20543;-38
2023/01/26 06:34:10;;;;;;;28.83;12.45;;;0.60;99.90;;;;;;5089963;28;20044;-38
2023/01/26 06:36:39;;;;;;;28.13;12.63;;;0.60;99.90;;;;;;5076803;28;20032;-38
2023/01/26 06:39:11;;;;;;;30.75;11.73;;;0.70;99.90;;;;;;5085886;28;20459;-38
2023/01/26 06:41:37;;;;;;;31.13;12.32;;;0.60;99.90;;;;;;5072214;28;20836;-39
2023/01/26 06:44:03;;;;;;;32.55;13.07;;;0.70;99.90;;;;;;5068564;28;20120;-39
2023/01/26 06:46:30;;;;;;;28.45;11.60;;;0.70;99.90;;;;;;5084495;28;20056;-39
2023/01/26 06:48:55;;;;;;;37.38;13.00;;;0.70;99.90;;;;;;5034624;28;20048;-39
2023/01/26 06:51:21;;;;;;;35.08;12.57;;;0.70;99.90;;;;;;5070825;28;20476;-38
2023/01/26 06:53:54;;;;;;;31.95;12.93;;;0.70;99.90;;;;;;5056070;28;20036;-38
2023/01/26 06:56:21;;;;;;;54.60;25.02;;;0.70;99.90;;;;;;5068318;28;20396;-39
2023/01/26 06:58:47;;;;;;;45.63;16.40;;;0.70;99.90;;;;;;5072354;28;20145;-36
2023/01/26 07:01:25;;;;;;;46.25;16.48;;;0.70;99.90;;;;;;5075319;28;20094;-39
2023/01/26 07:03:52;;;;;;;43.05;15.10;;;0.70;99.90;;;;;;5077345;28;20130;-39
2023/01/26 07:06:18;;;;;;;47.88;17.15;;;0.70;99.90;;;;;;5077121;28;20518;-39
2023/01/26 07:08:44;;;;;;;42.03;14.57;;;0.70;99.90;;;;;;5078366;28;20119;-39
2023/01/26 07:11:11;;;;;;;48.28;17.55;;;0.70;99.90;;;;;;5076915;28;20556;-39
2023/01/26 07:13:37;;;;;;;42.35;14.85;;;0.70;99.90;;;;;;5071327;28;20043;-39
2023/01/26 07:16:11;;;;;;;54.45;15.32;;;0.80;99.90;;;;;;5083581;28;20062;-38
2023/01/26 07:18:37;;;;;;;45.17;15.63;;;0.70;99.90;;;;;;5093246;28;20036;-37
2023/01/26 07:21:06;;;;;;;40.55;15.30;;;0.70;99.90;;;;;;5081495;28;20410;-39
2023/01/26 07:23:32;;;;;;;54.75;15.93;;;0.80;99.90;;;;;;5080561;28;20573;-38
2023/01/26 07:26:00;;;;;;;83.82;20.25;;;0.80;99.90;;;;;;5087669;28;20043;-38
2023/01/26 07:28:26;;;;;;;41.00;16.42;;;0.80;99.90;;;;;;5062033;28;20392;-39
2023/01/26 07:30:52;;;;;;;48.97;15.85;;;0.80;99.90;;;;;;5079324;28;20031;-38
2023/01/26 07:33:18;;;;;;;63.75;17.33;;;0.80;99.90;;;;;;5079240;28;20547;-38
2023/01/26 07:35:44;;;;;;;64.78;19.23;;;0.80;99.90;;;;;;5087245;28;20509;-38
2023/01/26 07:38:10;;;;;;;56.20;17.92;;;0.90;99.90;;;;;;5080255;28;20044;-38
2023/01/26 07:40:36;;;;;;;50.10;17.02;;;0.90;99.90;;;;;;5076473;28;20055;-39
2023/01/26 07:43:02;;;;;;;66.95;19.50;;;0.90;99.90;;;;;;5082447;28;20036;-39
2023/01/26 07:45:27;;;;;;;83.45;21.35;;;0.90;99.90;;;;;;5082388;28;20521;-38
2023/01/26 07:47:54;;;;;;;87.90;22.33;;;0.90;99.90;;;;;;5076337;28;20310;-38
2023/01/26 07:50:20;;;;;;;70.43;20.38;;;0.90;99.90;;;;;;5084388;28;20031;-38
2023/01/26 07:52:47;;;;;;;74.45;22.20;;;0.90;99.90;;;;;;5080392;28;20496;-38
2023/01/26 07:55:14;;;;;;;67.65;20.30;;;0.90;99.90;;;;;;5093469;28;20044;-38
2023/01/26 07:57:40;;;;;;;61.08;19.08;;;0.90;99.90;;;;;;5071841;28;20086;-38
2023/01/26 08:00:07;;;;;;;57.03;20.92;;;1.00;99.90;;;;;;5079919;28;20036;-38
2023/01/26 08:02:33;;;;;;;75.53;22.70;;;1.00;99.90;;;;;;5078062;28;20043;-38
2023/01/26 08:05:01;;;;;;;73.85;23.80;;;1.00;99.90;;;;;;5079615;28;20044;-38
2023/01/26 08:07:27;;;;;;;77.13;23.65;;;1.00;99.90;;;;;;5073273;28;20047;-39
2023/01/26 08:09:53;;;;;;;79.57;23.95;;;1.00;99.90;;;;;;5071310;28;20484;-39
2023/01/26 08:12:19;;;;;;;113.32;27.67;;;1.00;99.90;;;;;;5073579;28;20032;-38
2023/01/26 08:14:45;;;;;;;84.60;23.88;;;1.10;99.90;;;;;;5059596;28;20067;-38
2023/01/26 08:17:11;;;;;;;78.07;23.48;;;1.10;99.90;;;;;;5072181;28;20047;-38
2023/01/26 08:19:37;;;;;;;83.90;23.52;;;1.10;99.90;;;;;;5047134;28;20033;-38
2023/01/26 08:22:03;;;;;;;72.15;23.35;;;1.10;99.90;;;;;;5066813;28;20097;-38
2023/01/26 08:24:29;;;;;;;68.55;22.48;;;1.10;99.90;;;;;;5071875;28;20043;-38
2023/01/26 08:26:56;;;;;;;78.97;24.73;;;1.20;99.90;;;;;;5078606;28;20032;-38
2023/01/26 08:29:21;;;;;;;84.85;23.63;;;1.20;99.90;;;;;;5077800;28;20032;-38
2023/01/26 08:31:47;;;;;;;83.00;26.52;;;1.20;99.90;;;;;;5072339;28;20032;-38
2023/01/26 08:34:13;;;;;;;92.50;26.05;;;1.20;99.90;;;;;;5076660;28;20438;-38
2023/01/26 08:36:39;;;;;;;85.38;26.55;;;1.20;99.90;;;;;;5072782;28;20504;-38
2023/01/26 08:39:05;;;;;;;85.55;25.55;;;1.20;99.90;;;;;;5083757;28;20046;-38
2023/01/26 08:41:32;;;;;;;77.18;25.95;;;1.20;99.90;;;;;;5075991;28;20032;-37
2023/01/26 08:59:02;;;;;;;81.88;21.02;;;1.30;99.90;;;;;;5075937;28;20071;-38
2023/01/26 09:01:28;;;;;;;102.35;25.23;;;1.30;99.90;;;;;;5074299;28;20123;-37
2023/01/26 09:03:55;;;;;;;91.80;23.63;;;1.30;99.90;;;;;;5093666;28;20079;-38
2023/01/26 09:06:24;;;;;;;62.85;19.75;;;1.40;99.90;;;;;;5093271;28;20500;-39
2023/01/26 09:09:13;;;;;;;75.88;21.73;;;1.40;99.90;;;;;;5070647;28;20036;-38
2023/01/26 09:11:39;;;;;;;87.35;23.23;;;1.50;99.90;;;;;;5067524;28;20039;-38
2023/01/26 09:14:05;;;;;;;112.82;23.52;;;1.50;99.90;;;;;;5081728;28;20032;-38
2023/01/26 09:16:31;;;;;;;88.05;20.25;;;1.50;99.90;;;;;;5087137;28;20074;-38
2023/01/26 09:18:57;;;;;;;60.40;17.58;;;1.40;99.90;;;;;;5073928;28;20040;-38
2023/01/26 09:21:23;;;;;;;141.00;25.67;;;1.60;99.90;;;;;;5072524;28;20064;-38
2023/01/26 09:23:49;;;;;;;64.82;19.02;;;1.70;99.90;;;;;;5079450;28;20128;-38
2023/01/26 09:26:15;;;;;;;88.78;22.30;;;1.80;99.90;;;;;;5079939;28;20040;-37
2023/01/26 09:28:41;;;;;;;71.25;21.60;;;2.00;99.90;;;;;;5079890;28;20134;-37
2023/01/26 09:31:09;;;;;;;47.92;17.40;;;2.10;99.90;;;;;;5079389;28;20519;-37
2023/01/26 09:33:36;;;;;;;39.10;14.75;;;2.30;99.90;;;;;;5079484;28;20036;-37
2023/01/26 09:36:07;;;;;;;45.65;14.80;;;2.50;99.90;;;;;;5097679;28;20119;-38
2023/01/26 09:38:33;;;;;;;33.33;14.50;;;2.70;99.90;;;;;;5078587;28;20043;-38
2023/01/26 09:41:28;;;;;;;36.45;14.88;;;3.00;99.90;;;;;;5064943;28;20119;-37
2023/01/26 09:44:00;;;;;;;30.15;13.40;;;3.30;99.90;;;;;;5079664;28;20036;-38
2023/01/26 09:46:58;;;;;;;40.70;15.85;;;3.80;99.90;;;;;;5097211;28;20062;-38
2023/01/26 09:49:42;;;;;;;32.15;14.88;;;4.60;99.90;;;;;;5075981;28;20040;-38
2023/01/26 09:52:11;;;;;;;;;;;5.50;99.90;;;;;;5060277;28;20037;-38
2023/01/26 09:54:47;;;;;;;29.88;14.48;;;6.10;99.90;;;;;;5097270;28;19939;-38
2023/01/26 09:57:35;;;;;;;26.80;14.18;;;6.80;99.90;;;;;;5097243;28;20036;-39
2023/01/26 10:00:20;;;;;;;27.00;13.93;;;7.30;99.90;;;;;;5064923;28;20119;-39
2023/01/26 10:03:10;;;;;;;21.38;10.57;;;7.70;99.90;;;;;;5062777;28;20039;-38
2023/01/26 10:06:04;;;;;;;19.50;9.20;;;7.70;99.90;;;;;;5078756;28;20040;-38
2023/01/26 10:08:30;;;;;;;20.42;9.85;;;7.60;99.90;;;;;;5078717;28;20035;-38
2023/01/26 10:11:03;;;;;;;18.95;10.00;;;7.90;99.90;;;;;;5083953;28;20118;-44
2023/01/26 10:13:29;;;;;;;18.10;8.60;;;8.40;99.90;;;;;;5083317;28;20404;-41
2023/01/26 10:16:43;;;;;;;21.88;8.98;;;8.80;99.90;;;;;;5076533;28;20493;-42
2023/01/26 10:19:20;;;;;;;16.40;7.70;;;9.10;99.90;;;;;;5051965;28;20048;-39
2023/01/26 10:22:52;;;;;;;16.67;8.90;;;9.50;99.90;;;;;;5037095;28;20043;-38
2023/01/26 10:26:31;;;;;;;20.23;7.70;;;9.70;99.90;;;;;;4939436;28;20128;-38
2023/01/26 10:29:50;;;;;;;14.50;7.55;;;10.00;99.90;;;;;;4983020;28;20037;-38
2023/01/26 10:32:19;;;;;;;15.23;7.38;;;10.60;99.90;;;;;;4991162;28;20041;-38
2023/01/26 10:34:50;;;;;;;17.48;8.77;;;10.80;99.90;;;;;;5003239;28;20052;-39
2023/01/26 10:40:55;;;;;;;17.95;7.53;;;11.40;99.90;;;;;;5087367;28;20043;-40
2023/01/26 10:44:09;;;;;;;20.98;7.32;;;11.80;99.90;;;;;;5083366;28;20549;-39
2023/01/26 10:46:39;;;;;;;19.83;6.55;;;12.00;99.90;;;;;;5098475;28;20036;-39
2023/01/26 10:49:08;;;;;;;14.52;6.57;;;12.10;99.90;;;;;;5079831;28;20511;-41
2023/01/26 10:52:03;;;;;;;16.65;6.38;;;12.10;99.90;;;;;;5076104;28;20117;-41
2023/01/26 10:54:30;;;;;;;11.85;6.55;;;12.20;99.90;;;;;;5097282;28;20047;-41
2023/01/26 10:57:03;;;;;;;23.85;7.32;;;12.30;99.90;;;;;;5075581;28;20028;-44
2023/01/26 10:59:33;;;;;;;19.02;6.80;;;12.50;99.90;;;;;;5104639;28;20028;-41
2023/01/26 11:02:25;;;;;;;15.85;6.35;;;12.90;99.90;;;;;;5086400;28;20035;-42
2023/01/26 11:05:07;;;;;;;12.93;6.10;;;13.10;99.90;;;;;;5079472;28;20532;-41
2023/01/26 11:07:44;;;;;;;18.02;5.88;;;13.10;99.90;;;;;;5084170;28;20125;-41
2023/01/26 11:10:22;;;;;;;16.33;5.75;;;13.50;99.90;;;;;;5084768;28;20036;-43
2023/01/26 11:12:49;;;;;;;11.95;5.88;;;13.90;99.90;;;;;;5088069;28;20115;-43
2023/01/26 11:15:26;;;;;;;17.55;5.95;;;14.20;99.90;;;;;;5088817;28;20431;-42
2023/01/26 11:17:58;;;;;;;20.33;5.38;;;14.50;99.90;;;;;;5088097;28;20079;-43
2023/01/26 11:20:52;;;;;;;20.17;5.78;;;14.70;99.90;;;;;;5082795;28;20372;-44
2023/01/26 11:23:18;;;;;;;;;;;14.80;99.90;;;;;;5069516;28;20102;-42
2023/01/26 11:25:50;;;;;;;18.25;6.18;;;14.90;99.90;;;;;;5096421;28;20380;-43
2023/01/26 11:28:46;;;;;;;17.88;5.22;;;15.30;99.90;;;;;;5074121;28;20055;-46
2023/01/26 11:31:56;;;;;;;21.08;5.53;;;15.40;99.90;;;;;;5088062;28;20047;-41
2023/01/26 11:34:40;;;;;;;17.65;5.40;;;15.50;99.90;;;;;;5065091;28;20040;-42
2023/01/26 11:37:21;;;;;;;16.02;5.13;;;15.50;99.90;;;;;;5085523;28;20398;-42
2023/01/26 11:39:57;;;;;;;18.58;5.22;;;15.60;99.90;;;;;;5089999;28;20123;-43
2023/01/26 11:42:34;;;;;;;20.08;5.65;;;15.30;99.90;;;;;;5078947;28;20036;-42
2023/01/26 11:45:31;;;;;;;13.93;4.03;;;15.20;99.90;;;;;;5083763;28;20634;-42
2023/01/26 11:48:24;;;;;;;14.93;4.38;;;15.10;99.90;;;;;;5106638;28;20094;-44
2023/01/26 11:51:21;;;;;;;17.73;4.70;;;15.40;99.90;;;;;;5096426;28;20440;-43
2023/01/26 11:54:04;;;;;;;12.30;3.70;;;15.50;99.90;;;;;;5080695;28;20126;-42
2023/01/26 11:56:41;;;;;;;16.02;3.83;;;15.70;99.90;;;;;;5083118;28;20356;-43
2023/01/26 11:59:16;;;;;;;14.85;3.53;;;15.80;99.90;;;;;;5085918;28;20089;-43
2023/01/26 12:01:45;;;;;;;13.88;4.43;;;15.50;99.90;;;;;;5086282;28;20044;-42
2023/01/26 12:04:18;;;;;;;12.82;3.70;;;15.50;99.90;;;;;;5076050;28;20044;-43
2023/01/26 12:06:47;;;;;;;16.35;4.35;;;15.40;99.90;;;;;;5067684;28;20039;-43
2023/01/26 12:09:21;;;;;;;15.07;3.58;;;15.50;99.90;;;;;;5077428;28;20036;-43
2023/01/26 12:12:05;;;;;;;15.35;3.72;;;15.40;99.90;;;;;;5076477;28;20031;-42
2023/01/26 12:15:01;;;;;;;12.98;3.72;;;15.40;99.90;;;;;;5075536;28;20040;-42
2023/01/26 12:17:30;;;;;;;18.88;3.92;;;15.70;99.90;;;;;;5072751;28;20090;-43
2023/01/26 12:20:19;;;;;;;16.52;3.60;;;15.50;99.90;;;;;;5084778;28;20114;-44
2023/01/26 12:22:52;;;;;;;14.02;3.65;;;15.10;99.90;;;;;;5072400;28;20033;-43
2023/01/26 12:25:32;;;;;;;14.48;3.22;;;15.00;99.90;;;;;;5081160;28;20492;-43
2023/01/26 12:28:29;;;;;;;18.33;4.18;;;15.30;99.90;;;;;;5079155;28;20050;-42
2023/01/26 12:30:58;;;;;;;13.27;3.28;;;15.90;99.90;;;;;;5092150;28;20393;-43
2023/01/26 12:33:24;;;;;;;14.82;3.65;;;16.10;99.90;;;;;;5090771;28;20035;-42
2023/01/26 12:36:15;;;;;;;12.05;3.10;;;16.20;99.90;;;;;;5074931;28;20036;-43
2023/01/26 12:38:52;;;;;;;13.27;3.17;;;15.80;99.90;;;;;;5056903;28;20072;-43
2023/01/26 12:41:35;;;;;;;10.15;2.80;;;15.20;99.90;;;;;;5076857;28;20088;-43
2023/01/26 12:44:22;;;;;;;12.13;3.63;;;14.80;99.90;;;;;;5079406;28;20442;-41
2023/01/26 12:46:57;;;;;;;13.32;3.90;;;14.20;99.90;;;;;;5099138;28;20055;-43
2023/01/26 12:49:55;;;;;;;10.05;3.22;;;13.80;99.90;;;;;;5090228;28;20481;-44
2023/01/26 12:52:39;;;;;;;13.25;3.35;;;13.30;99.90;;;;;;5073256;28;20089;-42
2023/01/26 12:55:33;;;;;;;12.10;3.28;;;12.90;99.90;;;;;;5079208;28;20447;-43
2023/01/26 12:58:16;;;;;;;14.95;3.05;;;12.60;99.90;;;;;;5077987;28;20097;-43
2023/01/26 13:00:59;;;;;;;9.68;2.33;;;12.40;99.90;;;;;;5089210;28;20459;-43
2023/01/26 13:03:30;;;;;;;;;;;12.00;99.90;;;;;;5077942;28;20070;-42
2023/01/26 13:06:20;;;;;;;9.88;2.17;;;11.50;99.90;;;;;;5073015;28;19915;-43
2023/01/26 13:09:03;;;;;;;10.07;2.50;;;11.30;99.90;;;;;;5078395;28;20078;-43
2023/01/26 13:11:42;;;;;;;8.15;2.13;;;12.40;99.90;;;;;;5088254;28;20047;-46
2023/01/26 13:14:34;;;;;;;8.02;1.92;;;13.50;99.90;;;;;;5026392;28;1328742;-43
2023/01/26 13:17:44;;;;;;;6.55;2.05;;;14.70;99.90;;;;;;5082628;28;20040;-44
2023/01/26 13:20:48;;;;;;;8.77;1.98;;;15.40;99.90;;;;;;5030853;28;20069;-43
2023/01/26 13:23:38;;;;;;;7.85;2.08;;;15.50;99.90;;;;;;5098804;28;20046;-43
2023/01/26 13:26:10;;;;;;;7.82;2.10;;;15.70;99.90;;;;;;5074572;28;20035;-43
2023/01/26 13:28:36;;;;;;;9.00;1.95;;;16.00;99.90;;;;;;5099686;28;20028;-43
2023/01/26 13:31:07;;;;;;;7.47;1.90;;;16.30;99.90;;;;;;5073028;28;20445;-43
2023/01/26 13:33:34;;;;;;;7.80;1.73;;;16.70;99.90;;;;;;5089723;28;20039;-44
2023/01/26 13:36:09;;;;;;;6.82;1.77;;;17.20;99.90;;;;;;5089346;28;20040;-43
2023/01/26 13:38:57;;;;;;;7.82;2.30;;;17.50;99.90;;;;;;5081540;28;20036;-44
2023/01/26 13:41:23;;;;;;;7.25;2.05;;;17.70;99.90;;;;;;5074851;28;20039;-42
2023/01/26 13:43:54;;;;;;;8.07;1.73;;;17.90;99.90;;;;;;5071749;28;20485;-43
2023/01/26 13:46:50;;;;;;;9.25;1.73;;;17.30;99.90;;;;;;5083342;28;20040;-42
2023/01/26 13:49:43;;;;;;;9.13;1.75;;;16.00;93.10;;;;;;5073724;28;20338;-42
2023/01/26 13:52:24;;;;;;;5.85;1.55;;;14.60;99.90;;;;;;5068849;28;20052;-43
2023/01/26 13:54:51;;;;;;;8.20;1.60;;;13.70;99.90;;;;;;5098441;28;20028;-42
2023/01/26 13:57:30;;;;;;;8.85;2.15;;;13.90;99.90;;;;;;5085414;28;20035;-43
2023/01/26 14:00:00;;;;;;;6.78;1.83;;;13.80;99.90;;;;;;5084857;28;20039;-40
2023/01/26 14:02:33;;;;;;;9.32;2.00;;;13.40;99.90;;;;;;5074140;28;20044;-39
2023/01/26 14:05:01;;;;;;;11.43;2.50;;;12.80;99.90;;;;;;5096926;28;20176;-39
2023/01/26 14:07:48;;;;;;;7.03;2.42;;;12.30;99.90;;;;;;5076913;28;20126;-40